KEAU/EAU METAR and TAF weather

Enter ICAO airport designator
Station Type Date Time Source
KEAU METAR 2021/07/29 02:14 UTC NOAA

KEAU 290214Z AUTO 20009KT 10SM VCTS CLR 28/22 A2974 RMK AO2 LTG DSNT NW-E PRESFR T02830222


Station Type Date Time Source
KEAU Decoded METAR 2021/07/29 02:14 UTC NOAA

EAU CLAIRE CHIPPEWA VALLEY, WI, United States (KEAU) 44-52N 091-29W
Jul 28, 2021 - 10:14 PM EDT / 2021.07.29 0214 UTC
Wind: from the SSW (200 degrees) at 10 MPH (9 KT):0
Visibility: 10 mile(s):0
Sky conditions: clear
Weather: thunder in the vicinity; Lightning observed
Temperature: 82.9 F (28.3 C)
Dew Point: 72.0 F (22.2 C)
Relative Humidity: 69%
Pressure (altimeter): 29.74 in. Hg (1007 hPa)
Pressure tendency: falling rapidly
ob: KEAU 290214Z AUTO 20009KT 10SM VCTS CLR 28/22 A2974 RMK AO2 LTG DSNT NW-E PRESFR T02830222
cycle: 2

Station Type Date Time Source
KEAU TAF 2021/07/29 02:15 UTC NOAA

TAF
AMD KEAU 290212Z 2902/2924 21008KT 6SM -SHRA BR VCTS SCT060 BKN100CB
TEMPO 2903/2905 34035G50KT 1SM +TSRA BR BKN030CB
FM290500 VRB05KT P6SM SCT050 BKN120
FM290700 34006KT 5SM BR SCT080
FM291300 35007KT P6SM SKC

Example: see airport list